createdAt,value
2022-08-17T00:00:00.255Z,0
2022-08-17T00:05:00.493Z,0
2022-08-17T00:10:00.409Z,0
2022-08-17T00:15:00.309Z,0
2022-08-17T00:20:00.197Z,0
2022-08-17T00:25:00.302Z,0
2022-08-17T00:30:00.350Z,0
2022-08-17T00:35:00.245Z,0
2022-08-17T00:40:00.419Z,0
2022-08-17T00:44:59.986Z,0
2022-08-17T00:50:00.342Z,0
2022-08-17T00:55:00.349Z,0
2022-08-17T01:00:03.239Z,0
2022-08-17T01:05:00.265Z,0
2022-08-17T01:10:00.351Z,0
2022-08-17T01:15:00.048Z,0
2022-08-17T01:20:00.090Z,0
2022-08-17T01:25:00.198Z,0
2022-08-17T01:30:00.156Z,0
2022-08-17T01:35:00.233Z,0
2022-08-17T01:40:00.152Z,0
2022-08-17T01:45:03.078Z,0
2022-08-17T01:50:04.294Z,0
2022-08-17T01:54:59.991Z,0
2022-08-17T02:00:00.042Z,0
2022-08-17T02:05:00.261Z,0
2022-08-17T02:10:00.271Z,0
2022-08-17T02:15:00.516Z,0
2022-08-17T02:20:00.241Z,0
2022-08-17T02:25:02.348Z,0
2022-08-17T02:30:00.165Z,0
2022-08-17T02:35:00.152Z,0
2022-08-17T02:40:00.232Z,0
2022-08-17T02:45:00.107Z,0
2022-08-17T02:50:00.173Z,0
2022-08-17T02:55:00.213Z,0
2022-08-17T03:00:00.327Z,0
2022-08-17T03:05:00.333Z,0
2022-08-17T03:10:00.079Z,0
2022-08-17T03:14:59.955Z,0
2022-08-17T03:20:00.360Z,0
2022-08-17T03:25:00.248Z,0
2022-08-17T03:29:59.877Z,0
2022-08-17T03:35:00.022Z,0
2022-08-17T03:40:00.111Z,0
2022-08-17T03:45:00.276Z,0
2022-08-17T03:50:00.285Z,0
2022-08-17T03:55:00.142Z,0
2022-08-17T04:00:01.259Z,0
2022-08-17T04:04:59.854Z,0
2022-08-17T04:10:00.245Z,0
2022-08-17T04:15:00.181Z,0
2022-08-17T04:20:00.232Z,0
2022-08-17T04:25:00.204Z,0
2022-08-17T04:30:00.487Z,0
2022-08-17T04:35:00.001Z,0
2022-08-17T04:40:03.909Z,0
2022-08-17T04:45:00.810Z,0
2022-08-17T04:50:00.025Z,0.3
2022-08-17T04:55:00.107Z,0.6
2022-08-17T04:59:59.926Z,1.4
2022-08-17T05:04:59.931Z,1.6
2022-08-17T05:09:59.979Z,1.7
2022-08-17T05:15:00.353Z,2.6
2022-08-17T05:19:59.896Z,4.9
2022-08-17T05:25:00.164Z,7.4
2022-08-17T05:29:59.891Z,10.9
2022-08-17T05:34:59.908Z,13.5
2022-08-17T05:40:00.320Z,16.6
2022-08-17T05:44:59.890Z,19.9
2022-08-17T05:49:59.929Z,25.7
2022-08-17T05:54:59.915Z,34.8
2022-08-17T06:00:00.156Z,37.2
2022-08-17T06:05:00.124Z,38.3
2022-08-17T06:10:05.518Z,38.2
2022-08-17T06:14:59.914Z,33.3
2022-08-17T06:19:59.972Z,26.3
2022-08-17T06:25:00.246Z,37.9
2022-08-17T06:30:02.812Z,58.4
2022-08-17T06:35:00.010Z,71.9
2022-08-17T06:40:00.221Z,70.4
2022-08-17T06:45:02.790Z,66.4
2022-08-17T06:50:02.888Z,71
2022-08-17T06:54:59.772Z,80
2022-08-17T07:00:01.447Z,76.1
2022-08-17T07:05:00.115Z,75.9
2022-08-17T07:09:59.974Z,72.3
2022-08-17T07:14:59.946Z,73.9
2022-08-17T07:19:59.775Z,76.4
2022-08-17T07:25:00.129Z,79.1
2022-08-17T07:30:01.200Z,77.5
2022-08-17T07:34:59.954Z,71.1
2022-08-17T07:40:15.971Z,63.4
2022-08-17T07:45:01.810Z,74.4
2022-08-17T07:50:00.036Z,82.3
2022-08-17T07:54:59.988Z,73.2
2022-08-17T08:00:19.310Z,66.7
2022-08-17T08:05:02.085Z,57.1
2022-08-17T08:09:59.766Z,55.6
2022-08-17T08:14:59.800Z,62.8
2022-08-17T08:19:59.803Z,73.5
2022-08-17T08:24:59.988Z,81.5
2022-08-17T08:29:59.902Z,82.5
2022-08-17T08:35:02.664Z,75.1
2022-08-17T08:39:59.871Z,80.2
2022-08-17T08:45:04.820Z,88.9
2022-08-17T08:50:30.129Z,75.6
2022-08-17T08:54:59.981Z,66.6
2022-08-17T09:00:04.801Z,88.2
2022-08-17T09:05:13.537Z,96.9
2022-08-17T09:10:02.432Z,100.2
2022-08-17T09:15:00.001Z,89.2
2022-08-17T09:20:02.744Z,83.4
2022-08-17T09:25:00.025Z,105.1
2022-08-17T09:29:59.781Z,129.6
2022-08-17T09:34:59.955Z,125
2022-08-17T09:39:59.817Z,75.4
2022-08-17T09:45:05.854Z,73.4
2022-08-17T09:50:02.579Z,78.3
2022-08-17T09:54:59.706Z,111.5
2022-08-17T09:59:59.762Z,123.3
2022-08-17T10:04:59.691Z,132.3
2022-08-17T10:10:03.654Z,125.3
2022-08-17T10:15:08.247Z,113.5
2022-08-17T10:19:59.983Z,106.8
2022-08-17T10:25:21.331Z,108.4
2022-08-17T10:29:59.892Z,109.8
2022-08-17T10:35:12.562Z,123.9
2022-08-17T10:39:59.655Z,127.4
2022-08-17T10:45:01.984Z,127.3
2022-08-17T10:50:29.445Z,156.5
2022-08-17T10:55:00.015Z,178.6
2022-08-17T10:59:59.728Z,175.4
2022-08-17T11:05:11.316Z,167.5
2022-08-17T11:10:07.827Z,164.9
2022-08-17T11:14:59.676Z,159.3
2022-08-17T11:19:59.612Z,133.1
2022-08-17T11:25:10.836Z,109.7
2022-08-17T11:30:02.571Z,94.8
2022-08-17T11:34:59.702Z,98.1
2022-08-17T11:39:59.949Z,103.5
2022-08-17T11:44:59.798Z,103.3
2022-08-17T11:49:59.928Z,93.8
2022-08-17T11:55:17.689Z,77.1
2022-08-17T11:59:59.720Z,64.5
2022-08-17T12:04:59.595Z,54.5
2022-08-17T12:10:00.013Z,53
2022-08-17T12:15:10.612Z,53.2
2022-08-17T12:20:07.919Z,52.6
2022-08-17T12:25:02.480Z,52.2
2022-08-17T12:29:59.648Z,50.7
2022-08-17T12:35:00.117Z,51.4
2022-08-17T12:40:01.171Z,53.2
2022-08-17T12:44:59.693Z,55
2022-08-17T12:49:59.797Z,65.7
2022-08-17T12:54:59.996Z,69.9
2022-08-17T12:59:59.676Z,62.4
2022-08-17T13:05:00.285Z,67.2
2022-08-17T13:09:59.935Z,76.4
2022-08-17T13:14:59.892Z,74.6
2022-08-17T13:20:00.645Z,79.1
2022-08-17T13:24:59.869Z,75.8
2022-08-17T13:29:59.535Z,71.1
2022-08-17T13:35:14.413Z,71.2
2022-08-17T13:40:01.214Z,72.2
2022-08-17T13:44:59.848Z,74.3
2022-08-17T13:49:59.571Z,75.1
2022-08-17T13:54:59.886Z,77.1
2022-08-17T14:00:07.318Z,79.6
2022-08-17T14:04:59.691Z,72.6
2022-08-17T14:10:01.365Z,62.1
2022-08-17T14:14:59.762Z,62.3
2022-08-17T14:19:59.643Z,61
2022-08-17T14:24:59.499Z,62.9
2022-08-17T14:30:00.470Z,60
2022-08-17T14:34:59.859Z,61.3
2022-08-17T14:39:59.618Z,61.7
2022-08-17T14:45:00.176Z,58.1
2022-08-17T14:49:59.753Z,56.5
2022-08-17T14:54:59.763Z,62.1
2022-08-17T14:59:59.772Z,77.8
2022-08-17T15:04:59.531Z,59.1
2022-08-17T15:10:00.609Z,48.7
2022-08-17T15:14:59.721Z,46.8
2022-08-17T15:19:59.890Z,37.5
2022-08-17T15:25:03.006Z,33.4
2022-08-17T15:29:59.451Z,36.8
2022-08-17T15:34:59.687Z,48.8
2022-08-17T15:39:59.822Z,60
2022-08-17T15:45:03.391Z,61.9
2022-08-17T15:50:00.317Z,54.9
2022-08-17T15:54:59.814Z,64.5
2022-08-17T15:59:59.995Z,59.8
2022-08-17T16:04:59.805Z,55.5
2022-08-17T16:09:59.535Z,59.4
2022-08-17T16:14:59.415Z,76.8
2022-08-17T16:19:59.589Z,84.9
2022-08-17T16:25:01.657Z,86.3
2022-08-17T16:29:59.442Z,76.8
2022-08-17T16:34:59.633Z,65.5
2022-08-17T16:39:59.574Z,59.2
2022-08-17T16:45:01.374Z,58.5
2022-08-17T16:49:59.846Z,58.5
2022-08-17T16:55:00.289Z,57.9
2022-08-17T16:59:59.720Z,54.8
2022-08-17T17:04:59.470Z,50.8
2022-08-17T17:09:59.407Z,43.3
2022-08-17T17:14:59.650Z,38.8
2022-08-17T17:19:59.660Z,37.2
2022-08-17T17:25:06.405Z,37.8
2022-08-17T17:29:59.562Z,37.6
2022-08-17T17:34:59.375Z,38.6
2022-08-17T17:39:59.594Z,38.1
2022-08-17T17:45:03.542Z,37.9
2022-08-17T17:49:59.627Z,36.4
2022-08-17T17:54:59.576Z,30.2
2022-08-17T17:59:59.659Z,30.4
2022-08-17T18:04:59.517Z,33.7
2022-08-17T18:10:01.466Z,35.8
2022-08-17T18:14:59.356Z,23.9
2022-08-17T18:19:59.601Z,21.1
2022-08-17T18:24:59.561Z,23
2022-08-17T18:29:59.352Z,24.3
2022-08-17T18:34:59.501Z,23.6
2022-08-17T18:39:59.702Z,20.4
2022-08-17T18:44:59.444Z,14.3
2022-08-17T18:49:59.661Z,11.5
2022-08-17T18:55:01.599Z,7.4
2022-08-17T19:00:00.087Z,3.7
2022-08-17T19:04:59.511Z,1.3
2022-08-17T19:10:04.585Z,0.4
2022-08-17T19:14:59.840Z,0.1
2022-08-17T19:19:59.293Z,0
2022-08-17T19:25:03.630Z,0
2022-08-17T19:30:01.732Z,0
2022-08-17T19:34:59.432Z,0
2022-08-17T19:40:05.722Z,0
2022-08-17T19:45:02.426Z,0
2022-08-17T19:49:59.405Z,0
2022-08-17T19:55:03.932Z,0
2022-08-17T19:59:59.507Z,0
2022-08-17T20:04:59.555Z,0
2022-08-17T20:09:59.276Z,0
2022-08-17T20:14:59.318Z,0
2022-08-17T20:19:59.345Z,0
2022-08-17T20:25:02.585Z,0
2022-08-17T20:29:59.370Z,0
2022-08-17T20:34:59.248Z,0
2022-08-17T20:40:17.546Z,0
2022-08-17T20:45:00.416Z,0
2022-08-17T20:50:01.225Z,0
2022-08-17T20:54:59.481Z,0
2022-08-17T20:59:59.500Z,0
2022-08-17T21:04:59.571Z,0
2022-08-17T21:09:59.332Z,0
2022-08-17T21:14:59.423Z,0
2022-08-17T21:20:11.869Z,0
2022-08-17T21:24:59.541Z,0
2022-08-17T21:29:59.240Z,0
2022-08-17T21:35:23.103Z,0
2022-08-17T21:39:59.472Z,0
2022-08-17T21:45:07.080Z,0
2022-08-17T21:49:59.253Z,0
2022-08-17T21:54:59.526Z,0
2022-08-17T21:59:59.196Z,0
2022-08-17T22:04:59.247Z,0
2022-08-17T22:09:59.370Z,0
2022-08-17T22:14:59.266Z,0
2022-08-17T22:20:00.744Z,0
2022-08-17T22:24:59.222Z,0
2022-08-17T22:29:59.359Z,0
2022-08-17T22:34:59.261Z,0
2022-08-17T22:39:59.346Z,0
2022-08-17T22:44:59.383Z,0
2022-08-17T22:49:59.390Z,0
2022-08-17T22:54:59.230Z,0
2022-08-17T22:59:59.152Z,0
2022-08-17T23:04:59.223Z,0
2022-08-17T23:09:59.353Z,0
2022-08-17T23:14:59.495Z,0
2022-08-17T23:19:59.177Z,0
2022-08-17T23:24:59.479Z,0
2022-08-17T23:29:59.571Z,0
2022-08-17T23:34:59.597Z,0
2022-08-17T23:39:59.537Z,0
2022-08-17T23:44:59.395Z,0
2022-08-17T23:49:59.529Z,0
2022-08-17T23:54:59.206Z,0
2022-08-17T23:59:59.186Z,0
